Main page
METAR-TAF:

METAR-TAF

Airports :

Vijayawada International Airport

Vijayawada, India

latitude: 16-31-44N, longitude: 80-47-45E, elevation: 25 m

Current weather observation

The report was made 2 hours and 4 minutes ago, at 16:00 UTC
Calm wind
Temperature 28°C
Humidity 89%
Pressure 1011 hPa
Visibility: 4000 m
Few clouds at a height of 2000 ft
Scattered clouds at a height of 10000 ft
mist

METAR: VOBZ 211600Z 00000KT 4000 BR FEW020 SCT100 28/26 Q1011 NOSIG

Time: 23:34 (18:04 UTC)

Forecast

The report was made 1 hour and 4 minutes ago, at 17:00 UTC
Forecast valid from 21 at 18 UTC to 22 at 03 UTC
Wind 5 kt from the Northwest
Visibility: 5000 m
Scattered clouds at a height of 1500 ft
Scattered clouds at a height of 10000 ft
haze, mist
Temporary
from 21 at 23 UTC to 22 at 03 UTC
Wind kt from the North
Visibility: 1500 m
Scattered clouds at a height of 1000 ft
mist

TAF: VOBZ 211700Z 2118/2203 31005KT 5000 HZ BR SCT015 SCT100 TEMPO 2123/2203 00000KT 1500 BR SCT010

Weather observations and forecasts of more than 4000 airports (METAR and TAF reports).

The available stations are represented by yellow and red dots on the map.

Hover mouse over dot to see the name of the station.

Then click to see weather observations and forecasts.

To change the map : click on the green buttons with a black cross to zoom in, on the green button with a dash to zoom out, or on the green arrows for adjacent maps.


METAR-TAF: